sensor_id;sensor_type;location;lat;lon;timestamp;P1;durP1;ratioP1;P2;durP2;ratioP2
66020;SDS011;52789;59.980;30.346;2022-12-04T00:01:52;24.07;;;13.90;;
66020;SDS011;52789;59.980;30.346;2022-12-04T00:04:18;24.37;;;14.20;;
66020;SDS011;52789;59.980;30.346;2022-12-04T00:06:44;19.27;;;12.67;;
66020;SDS011;52789;59.980;30.346;2022-12-04T00:09:09;26.07;;;14.43;;
66020;SDS011;52789;59.980;30.346;2022-12-04T00:11:35;20.73;;;13.20;;
66020;SDS011;52789;59.980;30.346;2022-12-04T00:14:01;20.70;;;12.93;;
66020;SDS011;52789;59.980;30.346;2022-12-04T00:16:27;24.37;;;14.60;;
66020;SDS011;52789;59.980;30.346;2022-12-04T00:22:04;24.77;;;13.88;;
66020;SDS011;52789;59.980;30.346;2022-12-04T00:24:39;22.73;;;14.15;;
66020;SDS011;52789;59.980;30.346;2022-12-04T00:27:05;20.37;;;13.90;;
66020;SDS011;52789;59.980;30.346;2022-12-04T00:29:30;24.20;;;15.20;;
66020;SDS011;52789;59.980;30.346;2022-12-04T00:31:56;23.63;;;14.50;;
66020;SDS011;52789;59.980;30.346;2022-12-04T00:34:21;25.03;;;14.27;;
66020;SDS011;52789;59.980;30.346;2022-12-04T00:36:47;22.10;;;15.33;;
66020;SDS011;52789;59.980;30.346;2022-12-04T00:39:13;21.47;;;14.13;;
66020;SDS011;52789;59.980;30.346;2022-12-04T00:41:38;23.37;;;15.20;;
66020;SDS011;52789;59.980;30.346;2022-12-04T00:44:04;25.63;;;14.93;;
66020;SDS011;52789;59.980;30.346;2022-12-04T00:46:30;21.87;;;14.23;;
66020;SDS011;52789;59.980;30.346;2022-12-04T00:48:56;21.70;;;13.83;;
66020;SDS011;52789;59.980;30.346;2022-12-04T00:51:23;25.17;;;14.25;;
66020;SDS011;52789;59.980;30.346;2022-12-04T00:53:50;23.38;;;15.60;;
66020;SDS011;52789;59.980;30.346;2022-12-04T00:56:24;22.42;;;15.43;;
66020;SDS011;52789;59.980;30.346;2022-12-04T00:58:55;29.25;;;15.85;;
66020;SDS011;52789;59.980;30.346;2022-12-04T01:01:23;27.95;;;15.95;;
66020;SDS011;52789;59.980;30.346;2022-12-04T01:03:50;22.20;;;14.80;;
66020;SDS011;52789;59.980;30.346;2022-12-04T01:06:20;23.52;;;15.07;;
66020;SDS011;52789;59.980;30.346;2022-12-04T01:08:48;23.73;;;16.88;;
66020;SDS011;52789;59.980;30.346;2022-12-04T01:11:23;22.13;;;15.27;;
66020;SDS011;52789;59.980;30.346;2022-12-04T01:13:50;24.50;;;16.52;;
66020;SDS011;52789;59.980;30.346;2022-12-04T01:19:02;28.92;;;15.35;;
66020;SDS011;52789;59.980;30.346;2022-12-04T01:21:32;25.58;;;16.65;;
66020;SDS011;52789;59.980;30.346;2022-12-04T01:23:59;24.75;;;15.70;;
66020;SDS011;52789;59.980;30.346;2022-12-04T01:26:27;28.70;;;16.03;;
66020;SDS011;52789;59.980;30.346;2022-12-04T01:28:58;30.60;;;16.98;;
66020;SDS011;52789;59.980;30.346;2022-12-04T01:31:23;26.23;;;16.13;;
66020;SDS011;52789;59.980;30.346;2022-12-04T01:33:52;25.48;;;17.02;;
66020;SDS011;52789;59.980;30.346;2022-12-04T01:36:19;28.40;;;17.48;;
66020;SDS011;52789;59.980;30.346;2022-12-04T01:38:47;29.13;;;16.88;;
66020;SDS011;52789;59.980;30.346;2022-12-04T01:51:36;26.50;;;17.58;;
66020;SDS011;52789;59.980;30.346;2022-12-04T01:54:14;28.80;;;17.48;;
66020;SDS011;52789;59.980;30.346;2022-12-04T02:07:41;28.45;;;17.13;;
66020;SDS011;52789;59.980;30.346;2022-12-04T02:10:22;30.88;;;17.42;;
66020;SDS011;52789;59.980;30.346;2022-12-04T02:14:20;29.27;;;16.52;;
66020;SDS011;52789;59.980;30.346;2022-12-04T02:25:28;31.42;;;18.95;;
66020;SDS011;52789;59.980;30.346;2022-12-04T02:30:38;31.77;;;19.85;;
66020;SDS011;52789;59.980;30.346;2022-12-04T02:33:26;35.35;;;17.88;;
66020;SDS011;52789;59.980;30.346;2022-12-04T02:47:21;31.45;;;17.40;;
66020;SDS011;52789;59.980;30.346;2022-12-04T02:49:53;29.40;;;16.20;;
66020;SDS011;52789;59.980;30.346;2022-12-04T02:52:25;29.83;;;17.80;;
66020;SDS011;52789;59.980;30.346;2022-12-04T02:55:02;27.23;;;15.32;;
66020;SDS011;52789;59.980;30.346;2022-12-04T02:57:35;36.97;;;18.33;;
66020;SDS011;52789;59.980;30.346;2022-12-04T03:04:02;31.25;;;18.88;;
66020;SDS011;52789;59.980;30.346;2022-12-04T03:18:23;34.75;;;18.33;;
66020;SDS011;52789;59.980;30.346;2022-12-04T03:20:58;30.88;;;19.50;;
66020;SDS011;52789;59.980;30.346;2022-12-04T04:03:48;41.90;;;19.02;;
66020;SDS011;52789;59.980;30.346;2022-12-04T04:06:18;34.60;;;20.73;;
66020;SDS011;52789;59.980;30.346;2022-12-04T04:08:52;29.63;;;18.73;;
66020;SDS011;52789;59.980;30.346;2022-12-04T04:11:22;35.67;;;20.83;;
66020;SDS011;52789;59.980;30.346;2022-12-04T04:14:13;38.85;;;21.15;;
66020;SDS011;52789;59.980;30.346;2022-12-04T04:17:05;35.03;;;18.92;;
66020;SDS011;52789;59.980;30.346;2022-12-04T04:19:55;31.02;;;18.35;;
66020;SDS011;52789;59.980;30.346;2022-12-04T04:23:30;30.38;;;17.58;;
66020;SDS011;52789;59.980;30.346;2022-12-04T04:26:18;29.60;;;20.42;;
66020;SDS011;52789;59.980;30.346;2022-12-04T04:28:46;36.85;;;19.77;;
66020;SDS011;52789;59.980;30.346;2022-12-04T04:39:37;37.65;;;17.15;;
66020;SDS011;52789;59.980;30.346;2022-12-04T04:42:17;33.00;;;18.30;;
66020;SDS011;52789;59.980;30.346;2022-12-04T04:45:07;35.58;;;19.80;;
66020;SDS011;52789;59.980;30.346;2022-12-04T04:50:09;34.00;;;18.88;;
66020;SDS011;52789;59.980;30.346;2022-12-04T04:52:37;35.70;;;18.35;;
66020;SDS011;52789;59.980;30.346;2022-12-04T04:55:06;36.28;;;20.88;;
66020;SDS011;52789;59.980;30.346;2022-12-04T04:57:33;40.40;;;20.70;;
66020;SDS011;52789;59.980;30.346;2022-12-04T05:00:00;40.05;;;17.90;;
66020;SDS011;52789;59.980;30.346;2022-12-04T05:02:30;42.75;;;19.52;;
66020;SDS011;52789;59.980;30.346;2022-12-04T05:04:56;38.80;;;18.77;;
66020;SDS011;52789;59.980;30.346;2022-12-04T05:07:22;32.03;;;18.97;;
66020;SDS011;52789;59.980;30.346;2022-12-04T05:09:47;33.87;;;17.67;;
66020;SDS011;52789;59.980;30.346;2022-12-04T05:12:13;33.63;;;18.33;;
66020;SDS011;52789;59.980;30.346;2022-12-04T05:14:38;30.57;;;18.90;;
66020;SDS011;52789;59.980;30.346;2022-12-04T05:17:04;32.90;;;18.67;;
66020;SDS011;52789;59.980;30.346;2022-12-04T05:19:32;34.40;;;18.08;;
66020;SDS011;52789;59.980;30.346;2022-12-04T05:22:17;33.83;;;18.20;;
66020;SDS011;52789;59.980;30.346;2022-12-04T05:24:44;36.45;;;18.73;;
66020;SDS011;52789;59.980;30.346;2022-12-04T05:27:10;31.43;;;16.63;;
66020;SDS011;52789;59.980;30.346;2022-12-04T05:29:35;32.90;;;18.47;;
66020;SDS011;52789;59.980;30.346;2022-12-04T05:32:01;39.60;;;21.17;;
66020;SDS011;52789;59.980;30.346;2022-12-04T05:34:27;31.98;;;18.15;;
66020;SDS011;52789;59.980;30.346;2022-12-04T05:36:52;33.07;;;19.17;;
66020;SDS011;52789;59.980;30.346;2022-12-04T05:39:18;32.77;;;17.97;;
66020;SDS011;52789;59.980;30.346;2022-12-04T05:41:43;38.10;;;19.57;;
66020;SDS011;52789;59.980;30.346;2022-12-04T05:44:09;33.53;;;18.10;;
66020;SDS011;52789;59.980;30.346;2022-12-04T05:46:35;33.67;;;18.10;;
66020;SDS011;52789;59.980;30.346;2022-12-04T05:49:00;34.60;;;19.07;;
66020;SDS011;52789;59.980;30.346;2022-12-04T05:51:26;31.73;;;16.10;;
66020;SDS011;52789;59.980;30.346;2022-12-04T05:53:51;39.47;;;20.40;;
66020;SDS011;52789;59.980;30.346;2022-12-04T05:56:17;30.63;;;17.83;;
66020;SDS011;52789;59.980;30.346;2022-12-04T05:58:42;35.67;;;20.23;;
66020;SDS011;52789;59.980;30.346;2022-12-04T06:01:12;39.10;;;18.57;;
66020;SDS011;52789;59.980;30.346;2022-12-04T06:03:43;26.45;;;16.55;;
66020;SDS011;52789;59.980;30.346;2022-12-04T06:06:13;32.70;;;18.40;;
66020;SDS011;52789;59.980;30.346;2022-12-04T06:08:40;29.63;;;16.30;;
66020;SDS011;52789;59.980;30.346;2022-12-04T06:11:16;30.33;;;17.47;;
66020;SDS011;52789;59.980;30.346;2022-12-04T06:13:44;34.08;;;18.73;;
66020;SDS011;52789;59.980;30.346;2022-12-04T06:16:11;31.92;;;18.73;;
66020;SDS011;52789;59.980;30.346;2022-12-04T06:18:39;30.02;;;15.95;;
66020;SDS011;52789;59.980;30.346;2022-12-04T06:21:08;28.38;;;17.05;;
66020;SDS011;52789;59.980;30.346;2022-12-04T06:23:34;32.10;;;17.13;;
66020;SDS011;52789;59.980;30.346;2022-12-04T06:26:04;24.98;;;16.00;;
66020;SDS011;52789;59.980;30.346;2022-12-04T06:28:31;29.05;;;15.90;;
66020;SDS011;52789;59.980;30.346;2022-12-04T06:31:04;28.83;;;16.63;;
66020;SDS011;52789;59.980;30.346;2022-12-04T06:33:31;31.70;;;16.98;;
66020;SDS011;52789;59.980;30.346;2022-12-04T06:36:00;35.50;;;18.43;;
66020;SDS011;52789;59.980;30.346;2022-12-04T06:38:27;34.63;;;17.23;;
66020;SDS011;52789;59.980;30.346;2022-12-04T06:40:53;33.10;;;18.75;;
66020;SDS011;52789;59.980;30.346;2022-12-04T06:43:19;36.23;;;17.10;;
66020;SDS011;52789;59.980;30.346;2022-12-04T06:45:45;32.87;;;18.40;;
66020;SDS011;52789;59.980;30.346;2022-12-04T06:48:10;32.63;;;18.37;;
66020;SDS011;52789;59.980;30.346;2022-12-04T06:50:36;35.83;;;17.83;;
66020;SDS011;52789;59.980;30.346;2022-12-04T06:53:01;31.67;;;17.43;;
66020;SDS011;52789;59.980;30.346;2022-12-04T06:55:27;32.87;;;17.53;;
66020;SDS011;52789;59.980;30.346;2022-12-04T06:57:55;33.10;;;19.50;;
66020;SDS011;52789;59.980;30.346;2022-12-04T07:00:21;33.63;;;18.27;;
66020;SDS011;52789;59.980;30.346;2022-12-04T07:02:46;28.83;;;16.17;;
66020;SDS011;52789;59.980;30.346;2022-12-04T07:05:12;35.33;;;18.43;;
66020;SDS011;52789;59.980;30.346;2022-12-04T07:07:37;32.33;;;16.93;;
66020;SDS011;52789;59.980;30.346;2022-12-04T07:10:03;42.30;;;19.03;;
66020;SDS011;52789;59.980;30.346;2022-12-04T07:12:29;33.38;;;19.50;;
66020;SDS011;52789;59.980;30.346;2022-12-04T07:14:55;33.57;;;17.93;;
66020;SDS011;52789;59.980;30.346;2022-12-04T07:17:22;33.33;;;17.80;;
66020;SDS011;52789;59.980;30.346;2022-12-04T07:19:47;31.75;;;18.73;;
66020;SDS011;52789;59.980;30.346;2022-12-04T07:22:13;38.00;;;19.43;;
66020;SDS011;52789;59.980;30.346;2022-12-04T07:27:48;41.28;;;20.67;;
66020;SDS011;52789;59.980;30.346;2022-12-04T07:30:16;73.35;;;31.70;;
66020;SDS011;52789;59.980;30.346;2022-12-04T07:32:41;37.13;;;18.33;;
66020;SDS011;52789;59.980;30.346;2022-12-04T07:35:07;30.80;;;17.27;;
66020;SDS011;52789;59.980;30.346;2022-12-04T07:37:35;32.77;;;18.80;;
66020;SDS011;52789;59.980;30.346;2022-12-04T07:40:02;35.38;;;18.60;;
66020;SDS011;52789;59.980;30.346;2022-12-04T07:42:28;31.35;;;18.80;;
66020;SDS011;52789;59.980;30.346;2022-12-04T07:45:14;29.17;;;17.58;;
66020;SDS011;52789;59.980;30.346;2022-12-04T07:47:40;35.43;;;16.20;;
66020;SDS011;52789;59.980;30.346;2022-12-04T07:50:18;30.20;;;15.40;;
66020;SDS011;52789;59.980;30.346;2022-12-04T07:56:18;31.00;;;17.73;;
66020;SDS011;52789;59.980;30.346;2022-12-04T07:58:46;29.13;;;16.80;;
66020;SDS011;52789;59.980;30.346;2022-12-04T08:01:17;31.85;;;17.20;;
66020;SDS011;52789;59.980;30.346;2022-12-04T08:03:47;29.17;;;16.50;;
66020;SDS011;52789;59.980;30.346;2022-12-04T08:06:15;27.55;;;16.27;;
66020;SDS011;52789;59.980;30.346;2022-12-04T08:08:42;30.20;;;16.35;;
66020;SDS011;52789;59.980;30.346;2022-12-04T08:11:09;26.73;;;16.40;;
66020;SDS011;52789;59.980;30.346;2022-12-04T08:13:36;33.28;;;16.10;;
66020;SDS011;52789;59.980;30.346;2022-12-04T08:16:02;33.00;;;19.67;;
66020;SDS011;52789;59.980;30.346;2022-12-04T08:18:32;26.85;;;17.10;;
66020;SDS011;52789;59.980;30.346;2022-12-04T08:21:05;31.40;;;16.33;;
66020;SDS011;52789;59.980;30.346;2022-12-04T08:23:33;27.13;;;16.20;;
66020;SDS011;52789;59.980;30.346;2022-12-04T08:25:59;26.15;;;16.65;;
66020;SDS011;52789;59.980;30.346;2022-12-04T08:28:26;31.63;;;18.27;;
66020;SDS011;52789;59.980;30.346;2022-12-04T08:30:52;35.72;;;17.13;;
66020;SDS011;52789;59.980;30.346;2022-12-04T08:33:18;31.63;;;17.07;;
66020;SDS011;52789;59.980;30.346;2022-12-04T08:35:44;28.23;;;14.27;;
66020;SDS011;52789;59.980;30.346;2022-12-04T08:38:09;30.67;;;17.27;;
66020;SDS011;52789;59.980;30.346;2022-12-04T08:40:35;27.60;;;17.13;;
66020;SDS011;52789;59.980;30.346;2022-12-04T08:43:06;34.58;;;16.52;;
66020;SDS011;52789;59.980;30.346;2022-12-04T08:45:31;33.83;;;17.02;;
66020;SDS011;52789;59.980;30.346;2022-12-04T08:47:57;25.93;;;14.27;;
66020;SDS011;52789;59.980;30.346;2022-12-04T08:50:22;28.10;;;16.53;;
66020;SDS011;52789;59.980;30.346;2022-12-04T08:52:48;29.53;;;16.53;;
66020;SDS011;52789;59.980;30.346;2022-12-04T08:55:13;26.23;;;16.97;;
66020;SDS011;52789;59.980;30.346;2022-12-04T08:57:39;30.57;;;17.70;;
66020;SDS011;52789;59.980;30.346;2022-12-04T09:00:04;33.27;;;17.80;;
66020;SDS011;52789;59.980;30.346;2022-12-04T09:02:31;26.75;;;16.02;;
66020;SDS011;52789;59.980;30.346;2022-12-04T09:04:56;30.63;;;17.10;;
66020;SDS011;52789;59.980;30.346;2022-12-04T09:07:25;27.20;;;15.13;;
66020;SDS011;52789;59.980;30.346;2022-12-04T09:09:51;26.48;;;15.35;;
66020;SDS011;52789;59.980;30.346;2022-12-04T09:12:16;31.53;;;16.47;;
66020;SDS011;52789;59.980;30.346;2022-12-04T09:14:41;24.63;;;14.83;;
66020;SDS011;52789;59.980;30.346;2022-12-04T09:17:07;27.27;;;14.43;;
66020;SDS011;52789;59.980;30.346;2022-12-04T09:19:35;38.47;;;18.77;;
66020;SDS011;52789;59.980;30.346;2022-12-04T09:22:03;40.50;;;16.65;;
66020;SDS011;52789;59.980;30.346;2022-12-04T09:24:29;25.63;;;14.23;;
66020;SDS011;52789;59.980;30.346;2022-12-04T09:26:55;28.10;;;14.23;;
66020;SDS011;52789;59.980;30.346;2022-12-04T09:29:46;29.95;;;15.43;;
66020;SDS011;52789;59.980;30.346;2022-12-04T09:32:12;30.63;;;17.38;;
66020;SDS011;52789;59.980;30.346;2022-12-04T09:34:38;27.13;;;15.80;;
66020;SDS011;52789;59.980;30.346;2022-12-04T09:37:03;27.17;;;14.97;;
66020;SDS011;52789;59.980;30.346;2022-12-04T09:39:29;28.53;;;17.00;;
66020;SDS011;52789;59.980;30.346;2022-12-04T09:42:14;31.50;;;17.30;;
66020;SDS011;52789;59.980;30.346;2022-12-04T09:44:50;26.60;;;14.75;;
66020;SDS011;52789;59.980;30.346;2022-12-04T09:47:32;26.77;;;16.45;;
66020;SDS011;52789;59.980;30.346;2022-12-04T09:52:48;23.92;;;15.10;;
66020;SDS011;52789;59.980;30.346;2022-12-04T09:55:36;27.98;;;15.25;;
66020;SDS011;52789;59.980;30.346;2022-12-04T09:58:09;24.60;;;14.65;;
66020;SDS011;52789;59.980;30.346;2022-12-04T10:00:53;25.50;;;14.90;;
66020;SDS011;52789;59.980;30.346;2022-12-04T10:03:41;25.50;;;14.98;;
66020;SDS011;52789;59.980;30.346;2022-12-04T10:06:11;25.90;;;15.27;;
66020;SDS011;52789;59.980;30.346;2022-12-04T10:08:43;25.27;;;14.68;;
66020;SDS011;52789;59.980;30.346;2022-12-04T10:13:59;25.25;;;13.93;;
66020;SDS011;52789;59.980;30.346;2022-12-04T10:22:22;24.25;;;13.48;;
66020;SDS011;52789;59.980;30.346;2022-12-04T10:24:54;29.20;;;15.68;;
66020;SDS011;52789;59.980;30.346;2022-12-04T10:29:53;27.88;;;15.43;;
66020;SDS011;52789;59.980;30.346;2022-12-04T10:32:27;24.20;;;13.77;;
66020;SDS011;52789;59.980;30.346;2022-12-04T10:34:56;26.92;;;15.20;;
66020;SDS011;52789;59.980;30.346;2022-12-04T10:37:38;23.48;;;14.38;;
66020;SDS011;52789;59.980;30.346;2022-12-04T10:40:19;22.33;;;13.80;;
66020;SDS011;52789;59.980;30.346;2022-12-04T10:42:52;31.77;;;14.15;;
66020;SDS011;52789;59.980;30.346;2022-12-04T10:45:38;26.83;;;14.43;;
66020;SDS011;52789;59.980;30.346;2022-12-04T10:48:04;27.83;;;14.90;;
66020;SDS011;52789;59.980;30.346;2022-12-04T10:50:32;31.65;;;16.95;;
66020;SDS011;52789;59.980;30.346;2022-12-04T10:52:58;34.58;;;19.10;;
66020;SDS011;52789;59.980;30.346;2022-12-04T10:55:33;26.63;;;16.70;;
66020;SDS011;52789;59.980;30.346;2022-12-04T10:58:00;27.10;;;15.93;;
66020;SDS011;52789;59.980;30.346;2022-12-04T11:02:55;25.58;;;14.90;;
66020;SDS011;52789;59.980;30.346;2022-12-04T11:05:28;25.08;;;14.15;;
66020;SDS011;52789;59.980;30.346;2022-12-04T11:07:57;26.50;;;14.43;;
66020;SDS011;52789;59.980;30.346;2022-12-04T11:10:27;29.20;;;14.85;;
66020;SDS011;52789;59.980;30.346;2022-12-04T11:16:09;27.27;;;17.73;;
66020;SDS011;52789;59.980;30.346;2022-12-04T11:18:29;25.50;;;14.35;;
66020;SDS011;52789;59.980;30.346;2022-12-04T11:21:06;24.95;;;13.35;;
66020;SDS011;52789;59.980;30.346;2022-12-04T11:23:41;30.80;;;14.65;;
66020;SDS011;52789;59.980;30.346;2022-12-04T11:26:09;26.67;;;14.60;;
66020;SDS011;52789;59.980;30.346;2022-12-04T11:28:36;30.65;;;17.80;;
66020;SDS011;52789;59.980;30.346;2022-12-04T11:31:05;30.55;;;16.25;;
66020;SDS011;52789;59.980;30.346;2022-12-04T11:35:58;26.00;;;14.20;;
66020;SDS011;52789;59.980;30.346;2022-12-04T11:38:28;23.70;;;13.32;;
66020;SDS011;52789;59.980;30.346;2022-12-04T11:40:57;26.83;;;17.17;;
66020;SDS011;52789;59.980;30.346;2022-12-04T11:43:27;26.13;;;15.73;;
66020;SDS011;52789;59.980;30.346;2022-12-04T11:48:30;24.08;;;13.80;;
66020;SDS011;52789;59.980;30.346;2022-12-04T11:51:13;23.75;;;14.10;;
66020;SDS011;52789;59.980;30.346;2022-12-04T11:59:43;26.23;;;15.70;;
66020;SDS011;52789;59.980;30.346;2022-12-04T12:11:24;25.73;;;14.30;;
66020;SDS011;52789;59.980;30.346;2022-12-04T12:20:47;24.42;;;14.30;;
66020;SDS011;52789;59.980;30.346;2022-12-04T12:23:40;23.85;;;12.35;;
66020;SDS011;52789;59.980;30.346;2022-12-04T12:26:15;28.23;;;14.85;;
66020;SDS011;52789;59.980;30.346;2022-12-04T12:31:43;22.05;;;13.48;;
66020;SDS011;52789;59.980;30.346;2022-12-04T12:41:29;23.10;;;12.50;;
66020;SDS011;52789;59.980;30.346;2022-12-04T12:44:24;24.30;;;14.43;;
66020;SDS011;52789;59.980;30.346;2022-12-04T12:47:05;23.63;;;12.70;;
66020;SDS011;52789;59.980;30.346;2022-12-04T12:55:44;22.52;;;12.30;;
66020;SDS011;52789;59.980;30.346;2022-12-04T12:58:25;21.08;;;12.00;;
66020;SDS011;52789;59.980;30.346;2022-12-04T13:01:09;21.73;;;11.93;;
66020;SDS011;52789;59.980;30.346;2022-12-04T13:03:44;19.67;;;11.43;;
66020;SDS011;52789;59.980;30.346;2022-12-04T13:06:24;21.42;;;11.15;;
66020;SDS011;52789;59.980;30.346;2022-12-04T13:11:45;20.70;;;10.02;;
66020;SDS011;52789;59.980;30.346;2022-12-04T13:14:13;15.68;;;10.65;;
66020;SDS011;52789;59.980;30.346;2022-12-04T13:16:52;20.67;;;12.13;;
66020;SDS011;52789;59.980;30.346;2022-12-04T13:19:51;19.67;;;11.85;;
66020;SDS011;52789;59.980;30.346;2022-12-04T13:25:35;21.15;;;12.25;;
66020;SDS011;52789;59.980;30.346;2022-12-04T13:29:03;13.02;;;8.25;;
66020;SDS011;52789;59.980;30.346;2022-12-04T13:31:48;18.35;;;11.43;;
66020;SDS011;52789;59.980;30.346;2022-12-04T13:34:45;16.80;;;8.63;;
66020;SDS011;52789;59.980;30.346;2022-12-04T13:40:14;20.45;;;11.13;;
66020;SDS011;52789;59.980;30.346;2022-12-04T13:43:13;21.20;;;12.23;;
66020;SDS011;52789;59.980;30.346;2022-12-04T13:46:03;15.35;;;9.35;;
66020;SDS011;52789;59.980;30.346;2022-12-04T13:48:38;15.90;;;9.88;;
66020;SDS011;52789;59.980;30.346;2022-12-04T13:59:37;18.58;;;12.23;;
66020;SDS011;52789;59.980;30.346;2022-12-04T14:02:19;19.27;;;11.15;;
66020;SDS011;52789;59.980;30.346;2022-12-04T14:04:51;16.70;;;10.65;;
66020;SDS011;52789;59.980;30.346;2022-12-04T14:10:22;17.35;;;11.10;;
66020;SDS011;52789;59.980;30.346;2022-12-04T14:13:05;17.13;;;11.02;;
66020;SDS011;52789;59.980;30.346;2022-12-04T14:15:42;19.77;;;11.43;;
66020;SDS011;52789;59.980;30.346;2022-12-04T14:18:28;19.70;;;11.52;;
66020;SDS011;52789;59.980;30.346;2022-12-04T14:21:21;17.85;;;10.25;;
66020;SDS011;52789;59.980;30.346;2022-12-04T14:23:48;19.48;;;11.85;;
66020;SDS011;52789;59.980;30.346;2022-12-04T14:26:27;19.30;;;10.93;;
66020;SDS011;52789;59.980;30.346;2022-12-04T14:29:23;16.90;;;9.98;;
66020;SDS011;52789;59.980;30.346;2022-12-04T14:32:13;16.02;;;9.93;;
66020;SDS011;52789;59.980;30.346;2022-12-04T14:34:42;18.63;;;11.13;;
66020;SDS011;52789;59.980;30.346;2022-12-04T14:37:17;16.23;;;11.63;;
66020;SDS011;52789;59.980;30.346;2022-12-04T14:39:47;19.80;;;11.30;;
66020;SDS011;52789;59.980;30.346;2022-12-04T14:42:16;22.48;;;12.68;;
66020;SDS011;52789;59.980;30.346;2022-12-04T14:44:52;19.75;;;11.23;;
66020;SDS011;52789;59.980;30.346;2022-12-04T14:47:28;18.10;;;11.52;;
66020;SDS011;52789;59.980;30.346;2022-12-04T14:52:40;19.52;;;10.57;;
66020;SDS011;52789;59.980;30.346;2022-12-04T15:06:53;19.35;;;11.18;;
66020;SDS011;52789;59.980;30.346;2022-12-04T15:09:20;16.23;;;10.40;;
66020;SDS011;52789;59.980;30.346;2022-12-04T15:12:22;21.15;;;11.95;;
66020;SDS011;52789;59.980;30.346;2022-12-04T15:14:58;20.17;;;11.50;;
66020;SDS011;52789;59.980;30.346;2022-12-04T15:17:32;25.00;;;11.30;;
66020;SDS011;52789;59.980;30.346;2022-12-04T15:20:15;18.40;;;11.15;;
66020;SDS011;52789;59.980;30.346;2022-12-04T15:22:42;18.25;;;11.15;;
66020;SDS011;52789;59.980;30.346;2022-12-04T15:25:18;17.40;;;10.38;;
66020;SDS011;52789;59.980;30.346;2022-12-04T15:27:50;27.92;;;12.63;;
66020;SDS011;52789;59.980;30.346;2022-12-04T15:30:21;19.52;;;12.60;;
66020;SDS011;52789;59.980;30.346;2022-12-04T15:32:49;22.67;;;12.88;;
66020;SDS011;52789;59.980;30.346;2022-12-04T15:35:28;18.50;;;11.65;;
66020;SDS011;52789;59.980;30.346;2022-12-04T15:37:55;17.45;;;12.20;;
66020;SDS011;52789;59.980;30.346;2022-12-04T15:40:23;25.33;;;12.77;;
66020;SDS011;52789;59.980;30.346;2022-12-04T15:42:53;24.08;;;14.23;;
66020;SDS011;52789;59.980;30.346;2022-12-04T15:45:30;21.08;;;10.55;;
66020;SDS011;52789;59.980;30.346;2022-12-04T15:47:58;18.00;;;12.40;;
66020;SDS011;52789;59.980;30.346;2022-12-04T15:50:25;19.83;;;11.48;;
66020;SDS011;52789;59.980;30.346;2022-12-04T15:53:05;19.50;;;10.48;;
66020;SDS011;52789;59.980;30.346;2022-12-04T15:55:50;19.23;;;11.15;;
66020;SDS011;52789;59.980;30.346;2022-12-04T15:58:25;19.42;;;11.20;;
66020;SDS011;52789;59.980;30.346;2022-12-04T16:00:55;16.45;;;9.90;;
66020;SDS011;52789;59.980;30.346;2022-12-04T16:06:02;19.48;;;12.25;;
66020;SDS011;52789;59.980;30.346;2022-12-04T16:08:43;16.27;;;11.23;;
66020;SDS011;52789;59.980;30.346;2022-12-04T16:13:42;20.67;;;12.02;;
66020;SDS011;52789;59.980;30.346;2022-12-04T16:16:11;46.65;;;26.45;;
66020;SDS011;52789;59.980;30.346;2022-12-04T16:18:42;17.08;;;11.00;;
66020;SDS011;52789;59.980;30.346;2022-12-04T16:21:26;20.88;;;12.05;;
66020;SDS011;52789;59.980;30.346;2022-12-04T16:24:01;17.52;;;10.98;;
66020;SDS011;52789;59.980;30.346;2022-12-04T16:26:30;15.95;;;10.63;;
66020;SDS011;52789;59.980;30.346;2022-12-04T16:28:55;18.00;;;11.10;;
66020;SDS011;52789;59.980;30.346;2022-12-04T16:31:22;17.47;;;9.67;;
66020;SDS011;52789;59.980;30.346;2022-12-04T16:33:48;19.50;;;10.90;;
66020;SDS011;52789;59.980;30.346;2022-12-04T16:36:14;17.33;;;10.03;;
66020;SDS011;52789;59.980;30.346;2022-12-04T16:38:39;17.10;;;10.63;;
66020;SDS011;52789;59.980;30.346;2022-12-04T16:41:05;16.23;;;10.57;;
66020;SDS011;52789;59.980;30.346;2022-12-04T16:43:31;15.27;;;10.13;;
66020;SDS011;52789;59.980;30.346;2022-12-04T16:45:58;17.63;;;11.20;;
66020;SDS011;52789;59.980;30.346;2022-12-04T16:48:25;16.45;;;10.55;;
66020;SDS011;52789;59.980;30.346;2022-12-04T16:50:51;17.60;;;9.98;;
66020;SDS011;52789;59.980;30.346;2022-12-04T16:53:18;16.60;;;10.27;;
66020;SDS011;52789;59.980;30.346;2022-12-04T16:55:46;16.73;;;10.38;;
66020;SDS011;52789;59.980;30.346;2022-12-04T16:58:16;19.63;;;10.43;;
66020;SDS011;52789;59.980;30.346;2022-12-04T17:00:44;16.30;;;9.85;;
66020;SDS011;52789;59.980;30.346;2022-12-04T17:03:20;17.67;;;11.32;;
66020;SDS011;52789;59.980;30.346;2022-12-04T17:05:50;14.88;;;10.07;;
66020;SDS011;52789;59.980;30.346;2022-12-04T17:08:16;17.83;;;11.17;;
66020;SDS011;52789;59.980;30.346;2022-12-04T17:10:41;15.93;;;10.70;;
66020;SDS011;52789;59.980;30.346;2022-12-04T17:13:07;23.37;;;11.67;;
66020;SDS011;52789;59.980;30.346;2022-12-04T17:15:32;19.23;;;11.77;;
66020;SDS011;52789;59.980;30.346;2022-12-04T17:17:58;16.30;;;10.07;;
66020;SDS011;52789;59.980;30.346;2022-12-04T17:20:32;17.58;;;10.23;;
66020;SDS011;52789;59.980;30.346;2022-12-04T17:22:58;20.38;;;12.38;;
66020;SDS011;52789;59.980;30.346;2022-12-04T17:25:24;24.27;;;13.97;;
66020;SDS011;52789;59.980;30.346;2022-12-04T17:27:49;20.43;;;10.50;;
66020;SDS011;52789;59.980;30.346;2022-12-04T17:30:15;18.93;;;11.97;;
66020;SDS011;52789;59.980;30.346;2022-12-04T17:32:40;15.20;;;10.73;;
66020;SDS011;52789;59.980;30.346;2022-12-04T17:35:07;19.77;;;12.33;;
66020;SDS011;52789;59.980;30.346;2022-12-04T17:37:37;19.27;;;11.35;;
66020;SDS011;52789;59.980;30.346;2022-12-04T17:40:04;18.30;;;9.97;;
66020;SDS011;52789;59.980;30.346;2022-12-04T17:42:31;17.40;;;10.05;;
66020;SDS011;52789;59.980;30.346;2022-12-04T17:44:57;14.60;;;9.67;;
66020;SDS011;52789;59.980;30.346;2022-12-04T17:47:22;22.63;;;11.33;;
66020;SDS011;52789;59.980;30.346;2022-12-04T17:49:49;20.63;;;11.50;;
66020;SDS011;52789;59.980;30.346;2022-12-04T17:52:23;19.05;;;11.77;;
66020;SDS011;52789;59.980;30.346;2022-12-04T17:54:52;21.42;;;11.75;;
66020;SDS011;52789;59.980;30.346;2022-12-04T17:57:17;20.17;;;11.90;;
66020;SDS011;52789;59.980;30.346;2022-12-04T17:59:43;18.58;;;11.25;;
66020;SDS011;52789;59.980;30.346;2022-12-04T18:02:10;18.07;;;11.00;;
66020;SDS011;52789;59.980;30.346;2022-12-04T18:04:36;21.88;;;11.32;;
66020;SDS011;52789;59.980;30.346;2022-12-04T18:07:02;19.73;;;13.18;;
66020;SDS011;52789;59.980;30.346;2022-12-04T18:09:28;22.37;;;12.47;;
66020;SDS011;52789;59.980;30.346;2022-12-04T18:11:53;22.03;;;12.60;;
66020;SDS011;52789;59.980;30.346;2022-12-04T18:14:22;18.38;;;11.93;;
66020;SDS011;52789;59.980;30.346;2022-12-04T18:16:50;19.55;;;12.40;;
66020;SDS011;52789;59.980;30.346;2022-12-04T18:19:21;20.92;;;12.02;;